sensor_id;sensor_type;location;lat;lon;timestamp;pressure;altitude;pressure_sealevel;temperature;humidity
48926;BME280;39838;59.938;30.642;2023-05-29T00:01:26;100609.47;;;10.79;48.48
48926;BME280;39838;59.938;30.642;2023-05-29T00:03:53;100612.94;;;10.78;48.99
48926;BME280;39838;59.938;30.642;2023-05-29T00:06:21;100609.44;;;10.75;49.22
48926;BME280;39838;59.938;30.642;2023-05-29T00:08:49;100587.78;;;10.57;49.08
48926;BME280;39838;59.938;30.642;2023-05-29T00:11:16;100610.31;;;10.69;48.94
48926;BME280;39838;59.938;30.642;2023-05-29T00:13:43;100613.78;;;10.65;49.93
48926;BME280;39838;59.938;30.642;2023-05-29T00:16:11;100598.16;;;10.56;49.96
48926;BME280;39838;59.938;30.642;2023-05-29T00:18:38;100601.66;;;10.58;50.01
48926;BME280;39838;59.938;30.642;2023-05-29T00:21:11;100610.28;;;10.60;49.70
48926;BME280;39838;59.938;30.642;2023-05-29T00:23:39;100606.84;;;10.61;50.81
48926;BME280;39838;59.938;30.642;2023-05-29T00:26:08;100610.28;;;10.61;50.26
48926;BME280;39838;59.938;30.642;2023-05-29T00:28:35;100599.91;;;10.57;50.56
48926;BME280;39838;59.938;30.642;2023-05-29T00:31:03;100605.97;;;10.59;50.60
48926;BME280;39838;59.938;30.642;2023-05-29T00:33:31;100601.63;;;10.55;50.08
48926;BME280;39838;59.938;30.642;2023-05-29T00:35:58;100610.28;;;10.55;50.57
48926;BME280;39838;59.938;30.642;2023-05-29T00:38:26;100612.88;;;10.54;50.49
48926;BME280;39838;59.938;30.642;2023-05-29T00:40:53;100606.81;;;10.52;50.09
48926;BME280;39838;59.938;30.642;2023-05-29T00:43:21;100602.47;;;10.49;50.16
48926;BME280;39838;59.938;30.642;2023-05-29T00:45:49;100599.88;;;10.48;50.34
48926;BME280;39838;59.938;30.642;2023-05-29T00:48:16;100598.16;;;10.44;50.35
48926;BME280;39838;59.938;30.642;2023-05-29T00:50:44;100604.19;;;10.41;50.08
48926;BME280;39838;59.938;30.642;2023-05-29T00:53:12;100604.19;;;10.39;49.83
48926;BME280;39838;59.938;30.642;2023-05-29T00:55:40;100604.19;;;10.35;49.86
48926;BME280;39838;59.938;30.642;2023-05-29T00:58:07;100610.22;;;10.29;50.32
48926;BME280;39838;59.938;30.642;2023-05-29T01:00:36;100603.31;;;10.25;49.95
48926;BME280;39838;59.938;30.642;2023-05-29T01:03:04;100611.94;;;10.27;50.84
48926;BME280;39838;59.938;30.642;2023-05-29T01:05:34;100609.38;;;10.32;50.21
48926;BME280;39838;59.938;30.642;2023-05-29T01:08:02;100606.81;;;10.36;50.07
48926;BME280;39838;59.938;30.642;2023-05-29T01:10:30;100606.78;;;10.39;50.53
48926;BME280;39838;59.938;30.642;2023-05-29T01:13:03;100610.25;;;10.40;50.12
48926;BME280;39838;59.938;30.642;2023-05-29T01:15:41;100612.00;;;10.41;50.12
48926;BME280;39838;59.938;30.642;2023-05-29T01:18:22;100571.22;;;10.20;50.02
48926;BME280;39838;59.938;30.642;2023-05-29T01:20:58;100607.63;;;10.34;50.18
48926;BME280;39838;59.938;30.642;2023-05-29T01:23:44;100586.00;;;10.26;49.96
48926;BME280;39838;59.938;30.642;2023-05-29T01:29:07;100592.97;;;10.45;50.16
48926;BME280;39838;59.938;30.642;2023-05-29T01:31:37;100599.00;;;10.49;50.32
48926;BME280;39838;59.938;30.642;2023-05-29T01:34:06;100596.41;;;10.46;50.29
48926;BME280;39838;59.938;30.642;2023-05-29T01:36:33;100576.47;;;10.35;50.58
48926;BME280;39838;59.938;30.642;2023-05-29T01:39:01;100598.13;;;10.39;51.45
48926;BME280;39838;59.938;30.642;2023-05-29T01:41:29;100594.69;;;10.43;51.76
48926;BME280;39838;59.938;30.642;2023-05-29T01:43:58;100594.69;;;10.48;51.09
48926;BME280;39838;59.938;30.642;2023-05-29T01:46:27;100586.03;;;10.52;51.31
48926;BME280;39838;59.938;30.642;2023-05-29T01:48:55;100570.44;;;10.43;51.09
48926;BME280;39838;59.938;30.642;2023-05-29T01:51:22;100596.41;;;10.56;51.19
48926;BME280;39838;59.938;30.642;2023-05-29T01:53:50;100583.44;;;10.50;51.37
48926;BME280;39838;59.938;30.642;2023-05-29T01:56:17;100586.03;;;10.53;50.85
48926;BME280;39838;59.938;30.642;2023-05-29T01:58:45;100584.31;;;10.54;51.35
48926;BME280;39838;59.938;30.642;2023-05-29T02:01:13;100586.03;;;10.53;51.35
48926;BME280;39838;59.938;30.642;2023-05-29T02:03:41;100583.44;;;10.56;51.59
48926;BME280;39838;59.938;30.642;2023-05-29T02:06:09;100600.78;;;10.57;51.23
48926;BME280;39838;59.938;30.642;2023-05-29T02:08:36;100600.78;;;10.59;51.09
48926;BME280;39838;59.938;30.642;2023-05-29T02:11:03;100593.84;;;10.61;50.81
48926;BME280;39838;59.938;30.642;2023-05-29T02:13:31;100597.31;;;10.66;50.60
48926;BME280;39838;59.938;30.642;2023-05-29T02:15:58;100574.78;;;10.54;50.80
48926;BME280;39838;59.938;30.642;2023-05-29T02:18:25;100599.03;;;10.69;50.72
48926;BME280;39838;59.938;30.642;2023-05-29T02:20:54;100595.59;;;10.63;51.41
48926;BME280;39838;59.938;30.642;2023-05-29T02:23:22;100605.97;;;10.70;51.21
48926;BME280;39838;59.938;30.642;2023-05-29T02:25:49;100602.53;;;10.72;51.43
48926;BME280;39838;59.938;30.642;2023-05-29T02:28:16;100601.66;;;10.76;51.40
48926;BME280;39838;59.938;30.642;2023-05-29T02:30:44;100604.25;;;10.79;51.63
48926;BME280;39838;59.938;30.642;2023-05-29T02:33:11;100584.31;;;10.68;50.87
48926;BME280;39838;59.938;30.642;2023-05-29T02:35:38;100603.38;;;10.82;51.58
48926;BME280;39838;59.938;30.642;2023-05-29T02:38:07;100609.47;;;10.87;51.14
48926;BME280;39838;59.938;30.642;2023-05-29T02:40:34;100602.53;;;10.92;50.85
48926;BME280;39838;59.938;30.642;2023-05-29T02:43:01;100594.72;;;10.95;51.23
48926;BME280;39838;59.938;30.642;2023-05-29T02:45:28;100612.09;;;10.98;50.91
48926;BME280;39838;59.938;30.642;2023-05-29T02:47:55;100605.97;;;10.97;51.14
48926;BME280;39838;59.938;30.642;2023-05-29T02:50:22;100607.75;;;10.92;51.39
48926;BME280;39838;59.938;30.642;2023-05-29T02:52:49;100605.97;;;10.89;51.47
48926;BME280;39838;59.938;30.642;2023-05-29T02:55:18;100615.50;;;10.97;51.70
48926;BME280;39838;59.938;30.642;2023-05-29T02:57:46;100617.28;;;10.98;51.62
48926;BME280;39838;59.938;30.642;2023-05-29T03:00:16;100611.19;;;10.96;51.59
48926;BME280;39838;59.938;30.642;2023-05-29T03:02:44;100610.31;;;10.97;51.95
48926;BME280;39838;59.938;30.642;2023-05-29T03:05:11;100603.41;;;11.00;52.38
48926;BME280;39838;59.938;30.642;2023-05-29T03:07:38;100608.59;;;11.08;52.06
48926;BME280;39838;59.938;30.642;2023-05-29T03:10:06;100606.88;;;11.19;52.50
48926;BME280;39838;59.938;30.642;2023-05-29T03:12:34;100610.31;;;11.26;52.80
48926;BME280;39838;59.938;30.642;2023-05-29T03:15:02;100608.56;;;11.29;52.99
48926;BME280;39838;59.938;30.642;2023-05-29T03:17:31;100603.38;;;11.34;53.82
48926;BME280;39838;59.938;30.642;2023-05-29T03:19:58;100609.41;;;11.42;53.92
48926;BME280;39838;59.938;30.642;2023-05-29T03:22:25;100599.91;;;11.45;54.66
48926;BME280;39838;59.938;30.642;2023-05-29T03:24:52;100609.41;;;11.49;54.70
48926;BME280;39838;59.938;30.642;2023-05-29T03:27:20;100609.41;;;11.56;55.55
48926;BME280;39838;59.938;30.642;2023-05-29T03:29:48;100609.38;;;11.63;55.97
48926;BME280;39838;59.938;30.642;2023-05-29T03:32:15;100605.03;;;11.73;56.22
48926;BME280;39838;59.938;30.642;2023-05-29T03:34:43;100598.91;;;11.85;55.90
48926;BME280;39838;59.938;30.642;2023-05-29T03:37:10;100596.28;;;11.97;55.81
48926;BME280;39838;59.938;30.642;2023-05-29T03:39:37;100594.50;;;12.13;55.83
48926;BME280;39838;59.938;30.642;2023-05-29T03:42:04;100598.75;;;12.24;55.93
48926;BME280;39838;59.938;30.642;2023-05-29T03:44:31;100607.41;;;12.34;56.21
48926;BME280;39838;59.938;30.642;2023-05-29T03:47:00;100611.69;;;12.38;56.96
48926;BME280;39838;59.938;30.642;2023-05-29T03:49:27;100621.22;;;12.44;57.46
48926;BME280;39838;59.938;30.642;2023-05-29T03:51:54;100614.22;;;12.52;57.47
48926;BME280;39838;59.938;30.642;2023-05-29T03:54:21;100618.56;;;12.56;57.80
48926;BME280;39838;59.938;30.642;2023-05-29T03:56:49;100614.16;;;12.64;58.16
48926;BME280;39838;59.938;30.642;2023-05-29T03:59:16;100611.50;;;12.70;58.52
48926;BME280;39838;59.938;30.642;2023-05-29T04:01:43;100616.66;;;12.81;58.79
48926;BME280;39838;59.938;30.642;2023-05-29T04:04:12;100607.91;;;12.87;59.49
48926;BME280;39838;59.938;30.642;2023-05-29T04:06:39;100614.78;;;12.94;60.23
48926;BME280;39838;59.938;30.642;2023-05-29T04:09:07;100607.81;;;12.97;60.77
48926;BME280;39838;59.938;30.642;2023-05-29T04:11:34;100618.19;;;13.05;61.04
48926;BME280;39838;59.938;30.642;2023-05-29T04:14:02;100613.84;;;13.04;61.05
48926;BME280;39838;59.938;30.642;2023-05-29T04:16:29;100616.44;;;13.08;61.44
48926;BME280;39838;59.938;30.642;2023-05-29T04:18:56;100611.13;;;13.18;61.59
48926;BME280;39838;59.938;30.642;2023-05-29T04:21:25;100613.66;;;13.31;61.36
48926;BME280;39838;59.938;30.642;2023-05-29T04:23:53;100614.41;;;13.43;61.46
48926;BME280;39838;59.938;30.642;2023-05-29T04:26:21;100592.75;;;13.34;61.26
48926;BME280;39838;59.938;30.642;2023-05-29T04:28:52;100612.53;;;13.54;61.21
48926;BME280;39838;59.938;30.642;2023-05-29T04:31:23;100610.75;;;13.59;61.11
48926;BME280;39838;59.938;30.642;2023-05-29T04:33:51;100608.84;;;13.73;60.98
48926;BME280;39838;59.938;30.642;2023-05-29T04:36:22;100610.50;;;13.83;61.31
48926;BME280;39838;59.938;30.642;2023-05-29T04:38:53;100602.59;;;13.89;61.22
48926;BME280;39838;59.938;30.642;2023-05-29T04:41:20;100606.75;;;14.04;61.67
48926;BME280;39838;59.938;30.642;2023-05-29T04:43:49;100603.19;;;14.11;61.17
48926;BME280;39838;59.938;30.642;2023-05-29T04:46:17;100617.22;;;14.01;60.67
48926;BME280;39838;59.938;30.642;2023-05-29T04:48:45;100617.44;;;13.84;60.95
48926;BME280;39838;59.938;30.642;2023-05-29T04:51:12;100605.44;;;13.66;60.69
48926;BME280;39838;59.938;30.642;2023-05-29T04:53:39;100628.13;;;13.61;61.35
48926;BME280;39838;59.938;30.642;2023-05-29T04:56:08;100630.00;;;13.50;61.04
48926;BME280;39838;59.938;30.642;2023-05-29T04:58:36;100635.22;;;13.50;61.72
48926;BME280;39838;59.938;30.642;2023-05-29T05:01:03;100625.66;;;13.48;62.03
48926;BME280;39838;59.938;30.642;2023-05-29T05:03:30;100623.03;;;13.48;62.47
48926;BME280;39838;59.938;30.642;2023-05-29T05:05:59;100631.78;;;13.45;63.20
48926;BME280;39838;59.938;30.642;2023-05-29T05:08:28;100631.75;;;13.50;63.20
48926;BME280;39838;59.938;30.642;2023-05-29T05:10:56;100613.53;;;13.44;63.70
48926;BME280;39838;59.938;30.642;2023-05-29T05:13:25;100643.84;;;13.57;63.01
48926;BME280;39838;59.938;30.642;2023-05-29T05:15:52;100642.16;;;13.51;63.82
48926;BME280;39838;59.938;30.642;2023-05-29T05:18:20;100623.13;;;13.42;63.70
48926;BME280;39838;59.938;30.642;2023-05-29T05:20:47;100633.56;;;13.42;64.20
48926;BME280;39838;59.938;30.642;2023-05-29T05:23:14;100623.97;;;13.41;64.55
48926;BME280;39838;59.938;30.642;2023-05-29T05:25:41;100626.53;;;13.48;64.12
48926;BME280;39838;59.938;30.642;2023-05-29T05:28:08;100634.28;;;13.54;64.49
48926;BME280;39838;59.938;30.642;2023-05-29T05:30:37;100624.72;;;13.56;64.25
48926;BME280;39838;59.938;30.642;2023-05-29T05:33:04;100629.88;;;13.59;64.48
48926;BME280;39838;59.938;30.642;2023-05-29T05:35:32;100635.88;;;13.68;64.21
48926;BME280;39838;59.938;30.642;2023-05-29T05:37:59;100638.50;;;13.68;63.87
48926;BME280;39838;59.938;30.642;2023-05-29T05:40:27;100629.78;;;13.70;63.95
48926;BME280;39838;59.938;30.642;2023-05-29T05:42:54;100641.06;;;13.75;64.19
48926;BME280;39838;59.938;30.642;2023-05-29T05:45:21;100648.81;;;13.80;63.44
48926;BME280;39838;59.938;30.642;2023-05-29T05:47:49;100638.34;;;13.84;63.13
48926;BME280;39838;59.938;30.642;2023-05-29T05:50:17;100644.31;;;13.92;62.44
48926;BME280;39838;59.938;30.642;2023-05-29T05:52:44;100639.06;;;13.97;62.68
48926;BME280;39838;59.938;30.642;2023-05-29T05:55:11;100639.00;;;14.02;62.13
48926;BME280;39838;59.938;30.642;2023-05-29T05:57:38;100643.44;;;13.97;61.94
48926;BME280;39838;59.938;30.642;2023-05-29T06:00:06;100657.44;;;13.89;62.09
48926;BME280;39838;59.938;30.642;2023-05-29T06:02:37;100652.31;;;13.82;62.71
48926;BME280;39838;59.938;30.642;2023-05-29T06:05:08;100650.47;;;13.87;62.45
48926;BME280;39838;59.938;30.642;2023-05-29T06:07:35;100647.81;;;13.91;61.94
48926;BME280;39838;59.938;30.642;2023-05-29T06:10:03;100649.53;;;13.94;61.29
48926;BME280;39838;59.938;30.642;2023-05-29T06:12:31;100661.75;;;13.92;61.36
48926;BME280;39838;59.938;30.642;2023-05-29T06:14:58;100659.19;;;13.87;61.72
48926;BME280;39838;59.938;30.642;2023-05-29T06:17:25;100656.66;;;13.80;61.96
48926;BME280;39838;59.938;30.642;2023-05-29T06:19:52;100647.09;;;13.82;61.88
48926;BME280;39838;59.938;30.642;2023-05-29T06:22:21;100650.47;;;13.87;61.33
48926;BME280;39838;59.938;30.642;2023-05-29T06:24:48;100625.34;;;13.78;60.98
48926;BME280;39838;59.938;30.642;2023-05-29T06:27:15;100641.72;;;13.92;61.25
48926;BME280;39838;59.938;30.642;2023-05-29T06:29:43;100645.13;;;13.99;61.79
48926;BME280;39838;59.938;30.642;2023-05-29T06:32:10;100649.38;;;14.06;61.47
48926;BME280;39838;59.938;30.642;2023-05-29T06:34:38;100631.03;;;14.12;61.23
48926;BME280;39838;59.938;30.642;2023-05-29T06:37:05;100633.34;;;14.35;60.91
48926;BME280;39838;59.938;30.642;2023-05-29T06:39:34;100641.91;;;14.48;60.41
48926;BME280;39838;59.938;30.642;2023-05-29T06:42:01;100634.91;;;14.52;59.66
48926;BME280;39838;59.938;30.642;2023-05-29T06:44:28;100642.59;;;14.64;59.38
48926;BME280;39838;59.938;30.642;2023-05-29T06:46:55;100631.91;;;14.76;59.04
48926;BME280;39838;59.938;30.642;2023-05-29T06:49:22;100637.09;;;14.81;58.21
48926;BME280;39838;59.938;30.642;2023-05-29T06:51:50;100633.50;;;14.88;58.41
48926;BME280;39838;59.938;30.642;2023-05-29T06:54:17;100641.16;;;15.00;58.03
48926;BME280;39838;59.938;30.642;2023-05-29T06:56:45;100640.09;;;15.10;58.14
48926;BME280;39838;59.938;30.642;2023-05-29T06:59:12;100651.22;;;15.24;56.67
48926;BME280;39838;59.938;30.642;2023-05-29T07:01:39;100659.91;;;15.26;55.62
48926;BME280;39838;59.938;30.642;2023-05-29T07:04:07;100651.09;;;15.30;55.52
48926;BME280;39838;59.938;30.642;2023-05-29T07:06:34;100654.50;;;15.36;55.29
48926;BME280;39838;59.938;30.642;2023-05-29T07:09:01;100657.22;;;15.31;54.77
48926;BME280;39838;59.938;30.642;2023-05-29T07:11:28;100660.63;;;15.35;55.33
48926;BME280;39838;59.938;30.642;2023-05-29T07:13:57;100667.59;;;15.36;55.25
48926;BME280;39838;59.938;30.642;2023-05-29T07:16:25;100669.28;;;15.40;55.10
48926;BME280;39838;59.938;30.642;2023-05-29T07:18:52;100665.88;;;15.35;54.70
48926;BME280;39838;59.938;30.642;2023-05-29T07:21:20;100670.41;;;15.23;54.70
48926;BME280;39838;59.938;30.642;2023-05-29T07:23:47;100676.69;;;15.13;54.30
48926;BME280;39838;59.938;30.642;2023-05-29T07:26:14;100674.88;;;15.17;54.41
48926;BME280;39838;59.938;30.642;2023-05-29T07:28:41;100678.41;;;15.17;54.85
48926;BME280;39838;59.938;30.642;2023-05-29T07:31:10;100675.81;;;15.14;54.61
48926;BME280;39838;59.938;30.642;2023-05-29T07:33:39;100678.25;;;15.23;54.39
48926;BME280;39838;59.938;30.642;2023-05-29T07:36:06;100674.59;;;15.35;54.81
48926;BME280;39838;59.938;30.642;2023-05-29T07:38:34;100672.56;;;15.51;54.42
48926;BME280;39838;59.938;30.642;2023-05-29T07:41:01;100690.03;;;15.52;54.07
48926;BME280;39838;59.938;30.642;2023-05-29T07:43:28;100684.81;;;15.49;54.33
48926;BME280;39838;59.938;30.642;2023-05-29T07:45:56;100693.63;;;15.45;55.14
48926;BME280;39838;59.938;30.642;2023-05-29T07:48:24;100680.56;;;15.45;54.56
48926;BME280;39838;59.938;30.642;2023-05-29T07:50:51;100683.00;;;15.54;54.59
48926;BME280;39838;59.938;30.642;2023-05-29T07:53:18;100677.69;;;15.57;53.54
48926;BME280;39838;59.938;30.642;2023-05-29T07:55:46;100699.41;;;15.67;53.73
48926;BME280;39838;59.938;30.642;2023-05-29T07:58:13;100680.09;;;15.71;53.78
48926;BME280;39838;59.938;30.642;2023-05-29T08:00:44;100673.06;;;15.74;53.45
48926;BME280;39838;59.938;30.642;2023-05-29T08:03:11;100690.31;;;15.84;51.32
48926;BME280;39838;59.938;30.642;2023-05-29T08:05:39;100700.75;;;15.88;51.46
48926;BME280;39838;59.938;30.642;2023-05-29T08:08:07;100676.88;;;16.03;51.68
48926;BME280;39838;59.938;30.642;2023-05-29T08:10:34;100683.69;;;16.13;52.15
48926;BME280;39838;59.938;30.642;2023-05-29T08:13:01;100686.91;;;16.26;51.65
48926;BME280;39838;59.938;30.642;2023-05-29T08:15:28;100670.19;;;16.31;50.91
48926;BME280;39838;59.938;30.642;2023-05-29T08:17:56;100703.75;;;16.56;50.39
48926;BME280;39838;59.938;30.642;2023-05-29T08:20:24;100693.25;;;16.56;49.94
48926;BME280;39838;59.938;30.642;2023-05-29T08:22:52;100657.94;;;16.32;48.99
48926;BME280;39838;59.938;30.642;2023-05-29T08:25:20;100690.31;;;16.29;49.90
48926;BME280;39838;59.938;30.642;2023-05-29T08:27:47;100688.72;;;16.22;49.77
48926;BME280;39838;59.938;30.642;2023-05-29T08:30:14;100686.03;;;16.27;50.23
48926;BME280;39838;59.938;30.642;2023-05-29T08:32:42;100690.19;;;16.35;50.22
48926;BME280;39838;59.938;30.642;2023-05-29T08:35:09;100683.28;;;16.31;50.38
48926;BME280;39838;59.938;30.642;2023-05-29T08:37:36;100684.31;;;16.26;49.86
48926;BME280;39838;59.938;30.642;2023-05-29T08:40:06;100689.59;;;16.23;49.39
48926;BME280;39838;59.938;30.642;2023-05-29T08:42:39;100664.56;;;16.08;49.38
48926;BME280;39838;59.938;30.642;2023-05-29T08:45:09;100691.19;;;16.30;49.13
48926;BME280;39838;59.938;30.642;2023-05-29T08:47:40;100700.59;;;16.40;48.95
48926;BME280;39838;59.938;30.642;2023-05-29T08:50:08;100699.72;;;16.41;48.84
48926;BME280;39838;59.938;30.642;2023-05-29T08:52:37;100702.34;;;16.41;47.99
48926;BME280;39838;59.938;30.642;2023-05-29T08:55:08;100705.69;;;16.48;47.67
48926;BME280;39838;59.938;30.642;2023-05-29T08:57:36;100687.16;;;16.55;46.52
48926;BME280;39838;59.938;30.642;2023-05-29T09:00:06;100691.28;;;16.67;46.07
48926;BME280;39838;59.938;30.642;2023-05-29T09:02:38;100695.41;;;16.79;45.73
48926;BME280;39838;59.938;30.642;2023-05-29T09:05:06;100696.25;;;16.81;45.27
48926;BME280;39838;59.938;30.642;2023-05-29T09:07:34;100696.13;;;16.85;44.91
48926;BME280;39838;59.938;30.642;2023-05-29T09:10:04;100696.00;;;16.91;44.75
48926;BME280;39838;59.938;30.642;2023-05-29T09:12:33;100696.00;;;16.91;45.07
48926;BME280;39838;59.938;30.642;2023-05-29T09:15:01;100692.19;;;17.05;45.16
48926;BME280;39838;59.938;30.642;2023-05-29T09:17:33;100679.88;;;17.08;44.91
48926;BME280;39838;59.938;30.642;2023-05-29T09:20:01;100695.50;;;17.13;45.12
48926;BME280;39838;59.938;30.642;2023-05-29T09:22:30;100695.19;;;17.25;44.26
48926;BME280;39838;59.938;30.642;2023-05-29T09:24:58;100692.50;;;17.28;43.96
48926;BME280;39838;59.938;30.642;2023-05-29T09:27:26;100699.59;;;17.25;44.00
48926;BME280;39838;59.938;30.642;2023-05-29T09:29:54;100692.81;;;17.16;43.92
48926;BME280;39838;59.938;30.642;2023-05-29T09:32:22;100689.56;;;17.05;42.64
48926;BME280;39838;59.938;30.642;2023-05-29T09:34:53;100694.75;;;17.08;42.49
48926;BME280;39838;59.938;30.642;2023-05-29T09:37:21;100693.56;;;17.21;41.74
48926;BME280;39838;59.938;30.642;2023-05-29T09:39:49;100695.81;;;17.36;41.58
48926;BME280;39838;59.938;30.642;2023-05-29T09:42:17;100691.94;;;17.51;41.04
48926;BME280;39838;59.938;30.642;2023-05-29T09:44:45;100685.72;;;17.54;39.89
48926;BME280;39838;59.938;30.642;2023-05-29T09:47:18;100701.63;;;17.49;38.77
48926;BME280;39838;59.938;30.642;2023-05-29T09:49:46;100699.91;;;17.46;37.81
48926;BME280;39838;59.938;30.642;2023-05-29T09:52:14;100695.53;;;17.47;37.54
48926;BME280;39838;59.938;30.642;2023-05-29T09:54:43;100701.88;;;17.38;36.97
48926;BME280;39838;59.938;30.642;2023-05-29T09:57:12;100699.81;;;17.15;36.55
48926;BME280;39838;59.938;30.642;2023-05-29T09:59:41;100685.50;;;16.91;36.52
48926;BME280;39838;59.938;30.642;2023-05-29T10:02:11;100685.50;;;16.91;37.00
48926;BME280;39838;59.938;30.642;2023-05-29T10:04:41;100705.44;;;17.00;36.80
48926;BME280;39838;59.938;30.642;2023-05-29T10:07:15;100677.63;;;16.91;36.29
48926;BME280;39838;59.938;30.642;2023-05-29T10:09:50;100692.13;;;17.08;35.90
48926;BME280;39838;59.938;30.642;2023-05-29T10:12:20;100697.06;;;17.22;36.10
48926;BME280;39838;59.938;30.642;2023-05-29T10:14:49;100707.41;;;17.26;36.41
48926;BME280;39838;59.938;30.642;2023-05-29T10:17:18;100682.44;;;17.10;36.49
48926;BME280;39838;59.938;30.642;2023-05-29T10:19:50;100693.66;;;17.16;36.09
48926;BME280;39838;59.938;30.642;2023-05-29T10:22:20;100695.72;;;17.04;36.19
48926;BME280;39838;59.938;30.642;2023-05-29T10:24:48;100699.38;;;16.97;36.58
48926;BME280;39838;59.938;30.642;2023-05-29T10:27:17;100706.34;;;16.98;36.37
48926;BME280;39838;59.938;30.642;2023-05-29T10:29:49;100699.47;;;16.94;36.57
48926;BME280;39838;59.938;30.642;2023-05-29T10:32:23;100703.81;;;16.93;37.47
48926;BME280;39838;59.938;30.642;2023-05-29T10:35:03;100687.53;;;16.80;37.32
48926;BME280;39838;59.938;30.642;2023-05-29T10:37:37;100698.03;;;16.80;36.86
48926;BME280;39838;59.938;30.642;2023-05-29T10:40:08;100701.50;;;16.79;36.51
48926;BME280;39838;59.938;30.642;2023-05-29T10:42:45;100709.50;;;16.75;36.33
48926;BME280;39838;59.938;30.642;2023-05-29T10:48:43;100716.91;;;16.54;35.01
48926;BME280;39838;59.938;30.642;2023-05-29T10:51:28;100715.22;;;16.50;34.73
48926;BME280;39838;59.938;30.642;2023-05-29T10:53:57;100720.56;;;16.47;34.55
48926;BME280;39838;59.938;30.642;2023-05-29T10:56:28;100716.34;;;16.38;34.67
48926;BME280;39838;59.938;30.642;2023-05-29T10:58:59;100712.97;;;16.33;34.74
48926;BME280;39838;59.938;30.642;2023-05-29T11:01:28;100721.59;;;16.38;34.91
48926;BME280;39838;59.938;30.642;2023-05-29T11:04:27;100725.28;;;16.30;35.39
48926;BME280;39838;59.938;30.642;2023-05-29T11:06:58;100717.31;;;16.34;35.05
48926;BME280;39838;59.938;30.642;2023-05-29T11:09:28;100727.81;;;16.34;35.42
48926;BME280;39838;59.938;30.642;2023-05-29T11:12:16;100703.34;;;16.34;35.69
48926;BME280;39838;59.938;30.642;2023-05-29T11:15:03;100730.19;;;16.47;35.39
48926;BME280;39838;59.938;30.642;2023-05-29T11:17:43;100736.16;;;16.53;35.54
48926;BME280;39838;59.938;30.642;2023-05-29T11:20:20;100737.72;;;16.62;35.61
48926;BME280;39838;59.938;30.642;2023-05-29T11:23:05;100729.88;;;16.62;35.49
48926;BME280;39838;59.938;30.642;2023-05-29T11:25:35;100752.41;;;16.72;35.49
48926;BME280;39838;59.938;30.642;2023-05-29T11:28:04;100726.34;;;16.63;35.91
48926;BME280;39838;59.938;30.642;2023-05-29T11:30:45;100713.13;;;16.66;36.10
48926;BME280;39838;59.938;30.642;2023-05-29T11:33:20;100756.31;;;16.93;36.22
48926;BME280;39838;59.938;30.642;2023-05-29T11:35:57;100730.22;;;16.87;36.49
48926;BME280;39838;59.938;30.642;2023-05-29T11:38:27;100772.03;;;16.95;35.60
48926;BME280;39838;59.938;30.642;2023-05-29T11:40:54;100755.88;;;16.73;35.40
48926;BME280;39838;59.938;30.642;2023-05-29T11:43:22;100759.66;;;16.58;35.64
48926;BME280;39838;59.938;30.642;2023-05-29T11:45:50;100758.97;;;16.50;35.98
48926;BME280;39838;59.938;30.642;2023-05-29T11:48:17;100757.28;;;16.46;35.15
48926;BME280;39838;59.938;30.642;2023-05-29T11:50:44;100749.50;;;16.43;34.92
48926;BME280;39838;59.938;30.642;2023-05-29T11:53:11;100757.50;;;16.35;34.69
48926;BME280;39838;59.938;30.642;2023-05-29T11:55:40;100759.38;;;16.28;34.77
48926;BME280;39838;59.938;30.642;2023-05-29T11:58:07;100746.41;;;16.22;35.57
48926;BME280;39838;59.938;30.642;2023-05-29T12:00:37;100764.41;;;16.41;35.85
48926;BME280;39838;59.938;30.642;2023-05-29T12:03:05;100744.13;;;16.49;35.84
48926;BME280;39838;59.938;30.642;2023-05-29T12:05:44;100754.81;;;16.40;36.04
48926;BME280;39838;59.938;30.642;2023-05-29T12:08:11;100756.63;;;16.36;36.20
48926;BME280;39838;59.938;30.642;2023-05-29T12:10:46;100726.38;;;16.20;35.89
48926;BME280;39838;59.938;30.642;2023-05-29T12:13:14;100753.00;;;16.42;35.21
48926;BME280;39838;59.938;30.642;2023-05-29T12:15:42;100750.88;;;16.59;35.31
48926;BME280;39838;59.938;30.642;2023-05-29T12:18:10;100755.59;;;16.86;34.95
48926;BME280;39838;59.938;30.642;2023-05-29T12:20:38;100739.84;;;16.86;34.74
48926;BME280;39838;59.938;30.642;2023-05-29T12:23:05;100754.91;;;17.17;34.82
48926;BME280;39838;59.938;30.642;2023-05-29T12:25:34;100740.22;;;17.45;33.83
48926;BME280;39838;59.938;30.642;2023-05-29T12:28:05;100729.84;;;17.77;33.66
48926;BME280;39838;59.938;30.642;2023-05-29T12:30:37;100742.03;;;17.79;32.06
48926;BME280;39838;59.938;30.642;2023-05-29T12:33:06;100758.69;;;18.12;31.83
48926;BME280;39838;59.938;30.642;2023-05-29T12:35:33;100753.66;;;18.36;31.03
48926;BME280;39838;59.938;30.642;2023-05-29T12:38:01;100742.28;;;18.66;30.18
48926;BME280;39838;59.938;30.642;2023-05-29T12:40:30;100747.63;;;18.63;30.10
48926;BME280;39838;59.938;30.642;2023-05-29T12:43:01;100748.78;;;18.53;30.34
48926;BME280;39838;59.938;30.642;2023-05-29T12:45:31;100744.03;;;18.95;30.77
48926;BME280;39838;59.938;30.642;2023-05-29T12:48:00;100727.56;;;19.43;30.46
48926;BME280;39838;59.938;30.642;2023-05-29T12:50:30;100743.75;;;19.85;29.08
48926;BME280;39838;59.938;30.642;2023-05-29T12:52:59;100743.25;;;20.24;28.66
48926;BME280;39838;59.938;30.642;2023-05-29T12:55:27;100756.94;;;20.60;27.06